sensor_id;sensor_type;location;lat;lon;timestamp;pressure;altitude;pressure_sealevel;temperature
48003;BMP280;33768;48.578;11.574;2022-12-18T00:00:51;97607.56;;;-6.31
48003;BMP280;33768;48.578;11.574;2022-12-18T00:03:55;97604.06;;;-6.18
48003;BMP280;33768;48.578;11.574;2022-12-18T00:07:01;97605.56;;;-6.13
48003;BMP280;33768;48.578;11.574;2022-12-18T00:10:07;97604.78;;;-6.07
48003;BMP280;33768;48.578;11.574;2022-12-18T00:13:12;97610.06;;;-6.03
48003;BMP280;33768;48.578;11.574;2022-12-18T00:16:19;97617.66;;;-6.02
48003;BMP280;33768;48.578;11.574;2022-12-18T00:19:24;97609.66;;;-5.98
48003;BMP280;33768;48.578;11.574;2022-12-18T00:22:28;97602.03;;;-5.96
48003;BMP280;33768;48.578;11.574;2022-12-18T00:25:34;97615.31;;;-5.93
48003;BMP280;33768;48.578;11.574;2022-12-18T00:28:38;97605.06;;;-5.94
48003;BMP280;33768;48.578;11.574;2022-12-18T00:31:42;97616.06;;;-5.92
48003;BMP280;33768;48.578;11.574;2022-12-18T00:34:47;97616.44;;;-5.91
48003;BMP280;33768;48.578;11.574;2022-12-18T00:37:53;97618.66;;;-5.86
48003;BMP280;33768;48.578;11.574;2022-12-18T00:40:57;97620.53;;;-5.83
48003;BMP280;33768;48.578;11.574;2022-12-18T00:44:02;97620.53;;;-5.79
48003;BMP280;33768;48.578;11.574;2022-12-18T00:47:06;97628.47;;;-5.76
48003;BMP280;33768;48.578;11.574;2022-12-18T00:50:11;97623.47;;;-5.70
48003;BMP280;33768;48.578;11.574;2022-12-18T00:53:15;97608.63;;;-5.68
48003;BMP280;33768;48.578;11.574;2022-12-18T00:56:20;97615.44;;;-5.63
48003;BMP280;33768;48.578;11.574;2022-12-18T00:59:24;97623.00;;;-5.62
48003;BMP280;33768;48.578;11.574;2022-12-18T01:02:28;97629.84;;;-5.61
48003;BMP280;33768;48.578;11.574;2022-12-18T01:05:32;97634.38;;;-5.58
48003;BMP280;33768;48.578;11.574;2022-12-18T01:08:37;97643.06;;;-5.51
48003;BMP280;33768;48.578;11.574;2022-12-18T01:11:42;97646.44;;;-5.43
48003;BMP280;33768;48.578;11.574;2022-12-18T01:14:47;97640.69;;;-5.42
48003;BMP280;33768;48.578;11.574;2022-12-18T01:17:52;97632.69;;;-5.38
48003;BMP280;33768;48.578;11.574;2022-12-18T01:20:57;97648.31;;;-5.40
48003;BMP280;33768;48.578;11.574;2022-12-18T01:24:01;97662.38;;;-5.40
48003;BMP280;33768;48.578;11.574;2022-12-18T01:27:05;97664.28;;;-5.40
48003;BMP280;33768;48.578;11.574;2022-12-18T01:30:10;97674.91;;;-5.40
48003;BMP280;33768;48.578;11.574;2022-12-18T01:33:14;97683.31;;;-5.45
48003;BMP280;33768;48.578;11.574;2022-12-18T01:36:20;97684.81;;;-5.44
48003;BMP280;33768;48.578;11.574;2022-12-18T01:39:25;97681.03;;;-5.43
48003;BMP280;33768;48.578;11.574;2022-12-18T01:42:29;97692.03;;;-5.41
48003;BMP280;33768;48.578;11.574;2022-12-18T01:45:33;97701.53;;;-5.40
48003;BMP280;33768;48.578;11.574;2022-12-18T01:48:39;97700.00;;;-5.38
48003;BMP280;33768;48.578;11.574;2022-12-18T01:51:43;97694.31;;;-5.40
48003;BMP280;33768;48.578;11.574;2022-12-18T01:54:49;97687.09;;;-5.43
48003;BMP280;33768;48.578;11.574;2022-12-18T01:57:58;97700.75;;;-5.37
48003;BMP280;33768;48.578;11.574;2022-12-18T02:01:03;97690.47;;;-5.35
48003;BMP280;33768;48.578;11.574;2022-12-18T02:04:28;97687.06;;;-5.39
48003;BMP280;33768;48.578;11.574;2022-12-18T02:07:48;97677.22;;;-5.42
48003;BMP280;33768;48.578;11.574;2022-12-18T02:14:44;97673.47;;;-5.48
48003;BMP280;33768;48.578;11.574;2022-12-18T02:17:59;97677.28;;;-5.49
48003;BMP280;33768;48.578;11.574;2022-12-18T02:21:35;97675.78;;;-5.54
48003;BMP280;33768;48.578;11.574;2022-12-18T02:28:05;97681.91;;;-5.60
48003;BMP280;33768;48.578;11.574;2022-12-18T02:31:14;97662.94;;;-5.65
48003;BMP280;33768;48.578;11.574;2022-12-18T02:34:23;97665.97;;;-5.63
48003;BMP280;33768;48.578;11.574;2022-12-18T02:37:30;97669.00;;;-5.61
48003;BMP280;33768;48.578;11.574;2022-12-18T02:40:38;97666.69;;;-5.56
48003;BMP280;33768;48.578;11.574;2022-12-18T02:43:49;97682.63;;;-5.53
48003;BMP280;33768;48.578;11.574;2022-12-18T02:46:56;97674.97;;;-5.47
48003;BMP280;33768;48.578;11.574;2022-12-18T02:50:22;97671.94;;;-5.46
48003;BMP280;33768;48.578;11.574;2022-12-18T02:53:40;97672.63;;;-5.42
48003;BMP280;33768;48.578;11.574;2022-12-18T02:56:51;97661.25;;;-5.42
48003;BMP280;33768;48.578;11.574;2022-12-18T03:00:06;97665.44;;;-5.45
48003;BMP280;33768;48.578;11.574;2022-12-18T03:03:17;97663.53;;;-5.44
48003;BMP280;33768;48.578;11.574;2022-12-18T03:06:30;97665.09;;;-5.47
48003;BMP280;33768;48.578;11.574;2022-12-18T03:09:40;97659.75;;;-5.43
48003;BMP280;33768;48.578;11.574;2022-12-18T03:12:54;97672.63;;;-5.38
48003;BMP280;33768;48.578;11.574;2022-12-18T03:16:00;97684.00;;;-5.34
48003;BMP280;33768;48.578;11.574;2022-12-18T03:19:15;97680.88;;;-5.26
48003;BMP280;33768;48.578;11.574;2022-12-18T03:22:21;97669.44;;;-5.23
48003;BMP280;33768;48.578;11.574;2022-12-18T03:25:30;97673.63;;;-5.22
48003;BMP280;33768;48.578;11.574;2022-12-18T03:28:39;97671.69;;;-5.18
48003;BMP280;33768;48.578;11.574;2022-12-18T03:31:51;97669.75;;;-5.14
48003;BMP280;33768;48.578;11.574;2022-12-18T03:35:00;97665.97;;;-5.17
48003;BMP280;33768;48.578;11.574;2022-12-18T03:38:10;97661.06;;;-5.22
48003;BMP280;33768;48.578;11.574;2022-12-18T03:41:31;97664.84;;;-5.19
48003;BMP280;33768;48.578;11.574;2022-12-18T03:45:48;97673.94;;;-5.13
48003;BMP280;33768;48.578;11.574;2022-12-18T03:51:48;97671.53;;;-5.04
48003;BMP280;33768;48.578;11.574;2022-12-18T03:54:56;97663.97;;;-5.06
48003;BMP280;33768;48.578;11.574;2022-12-18T03:58:03;97654.81;;;-5.05
48003;BMP280;33768;48.578;11.574;2022-12-18T04:01:22;97659.00;;;-5.04
48003;BMP280;33768;48.578;11.574;2022-12-18T04:04:27;97664.34;;;-5.04
48003;BMP280;33768;48.578;11.574;2022-12-18T04:07:33;97676.84;;;-5.01
48003;BMP280;33768;48.578;11.574;2022-12-18T04:10:39;97684.81;;;-4.98
48003;BMP280;33768;48.578;11.574;2022-12-18T04:13:43;97681.34;;;-4.91
48003;BMP280;33768;48.578;11.574;2022-12-18T04:16:55;97664.13;;;-4.87
48003;BMP280;33768;48.578;11.574;2022-12-18T04:20:05;97667.91;;;-4.84
48003;BMP280;33768;48.578;11.574;2022-12-18T04:23:10;97673.66;;;-4.86
48003;BMP280;33768;48.578;11.574;2022-12-18T04:26:15;97685.06;;;-4.85
48003;BMP280;33768;48.578;11.574;2022-12-18T04:29:28;97681.22;;;-4.81
48003;BMP280;33768;48.578;11.574;2022-12-18T04:32:33;97680.84;;;-4.83
48003;BMP280;33768;48.578;11.574;2022-12-18T04:35:39;97689.22;;;-4.81
48003;BMP280;33768;48.578;11.574;2022-12-18T04:38:45;97697.53;;;-4.79
48003;BMP280;33768;48.578;11.574;2022-12-18T04:41:53;97709.31;;;-4.76
48003;BMP280;33768;48.578;11.574;2022-12-18T04:44:57;97712.72;;;-4.72
48003;BMP280;33768;48.578;11.574;2022-12-18T04:48:02;97719.91;;;-4.69
48003;BMP280;33768;48.578;11.574;2022-12-18T04:51:06;97725.25;;;-4.69
48003;BMP280;33768;48.578;11.574;2022-12-18T04:54:11;97710.81;;;-4.72
48003;BMP280;33768;48.578;11.574;2022-12-18T04:57:15;97716.19;;;-4.75
48003;BMP280;33768;48.578;11.574;2022-12-18T05:00:19;97710.13;;;-4.79
48003;BMP280;33768;48.578;11.574;2022-12-18T05:03:24;97705.53;;;-4.75
48003;BMP280;33768;48.578;11.574;2022-12-18T05:06:28;97699.75;;;-4.70
48003;BMP280;33768;48.578;11.574;2022-12-18T05:09:32;97708.56;;;-4.73
48003;BMP280;33768;48.578;11.574;2022-12-18T05:12:37;97707.78;;;-4.74
48003;BMP280;33768;48.578;11.574;2022-12-18T05:16:02;97697.13;;;-4.74
48003;BMP280;33768;48.578;11.574;2022-12-18T05:19:06;97719.22;;;-4.73
48003;BMP280;33768;48.578;11.574;2022-12-18T05:22:11;97724.44;;;-4.67
48003;BMP280;33768;48.578;11.574;2022-12-18T05:25:15;97715.69;;;-4.64
48003;BMP280;33768;48.578;11.574;2022-12-18T05:28:20;97722.22;;;-4.71
48003;BMP280;33768;48.578;11.574;2022-12-18T05:31:25;97742.81;;;-4.75
48003;BMP280;33768;48.578;11.574;2022-12-18T05:34:29;97736.00;;;-4.80
48003;BMP280;33768;48.578;11.574;2022-12-18T05:37:33;97737.13;;;-4.77
48003;BMP280;33768;48.578;11.574;2022-12-18T05:40:41;97728.75;;;-4.79
48003;BMP280;33768;48.578;11.574;2022-12-18T05:43:46;97743.94;;;-4.73
48003;BMP280;33768;48.578;11.574;2022-12-18T05:46:50;97742.03;;;-4.72
48003;BMP280;33768;48.578;11.574;2022-12-18T05:49:54;97732.88;;;-4.71
48003;BMP280;33768;48.578;11.574;2022-12-18T05:52:59;97739.72;;;-4.70
48003;BMP280;33768;48.578;11.574;2022-12-18T05:56:05;97748.84;;;-4.71
48003;BMP280;33768;48.578;11.574;2022-12-18T05:59:10;97742.78;;;-4.72
48003;BMP280;33768;48.578;11.574;2022-12-18T06:02:14;97736.63;;;-4.66
48003;BMP280;33768;48.578;11.574;2022-12-18T06:05:18;97741.22;;;-4.66
48003;BMP280;33768;48.578;11.574;2022-12-18T06:08:22;97737.78;;;-4.67
48003;BMP280;33768;48.578;11.574;2022-12-18T06:11:27;97742.78;;;-4.72
48003;BMP280;33768;48.578;11.574;2022-12-18T06:14:31;97745.06;;;-4.70
48003;BMP280;33768;48.578;11.574;2022-12-18T06:17:35;97740.09;;;-4.68
48003;BMP280;33768;48.578;11.574;2022-12-18T06:20:39;97738.19;;;-4.71
48003;BMP280;33768;48.578;11.574;2022-12-18T06:23:45;97749.59;;;-4.68
48003;BMP280;33768;48.578;11.574;2022-12-18T06:26:49;97746.56;;;-4.69
48003;BMP280;33768;48.578;11.574;2022-12-18T06:29:53;97751.13;;;-4.70
48003;BMP280;33768;48.578;11.574;2022-12-18T06:32:57;97749.28;;;-4.73
48003;BMP280;33768;48.578;11.574;2022-12-18T06:36:10;97761.06;;;-4.70
48003;BMP280;33768;48.578;11.574;2022-12-18T06:39:14;97758.75;;;-4.72
48003;BMP280;33768;48.578;11.574;2022-12-18T06:42:18;97771.69;;;-4.70
48003;BMP280;33768;48.578;11.574;2022-12-18T06:45:22;97765.97;;;-4.69
48003;BMP280;33768;48.578;11.574;2022-12-18T06:48:26;97770.88;;;-4.64
48003;BMP280;33768;48.578;11.574;2022-12-18T06:51:31;97781.50;;;-4.61
48003;BMP280;33768;48.578;11.574;2022-12-18T06:54:35;97776.94;;;-4.60
48003;BMP280;33768;48.578;11.574;2022-12-18T06:57:39;97774.59;;;-4.55
48003;BMP280;33768;48.578;11.574;2022-12-18T07:00:43;97777.59;;;-2.79
48003;BMP280;33768;48.578;11.574;2022-12-18T07:03:52;97788.00;;;-3.07
48003;BMP280;33768;48.578;11.574;2022-12-18T07:06:57;97800.59;;;-3.63
48003;BMP280;33768;48.578;11.574;2022-12-18T07:10:02;97797.38;;;-3.81
48003;BMP280;33768;48.578;11.574;2022-12-18T07:13:07;97800.50;;;-2.78
48003;BMP280;33768;48.578;11.574;2022-12-18T07:16:16;97809.38;;;-2.17
48003;BMP280;33768;48.578;11.574;2022-12-18T07:19:21;97801.31;;;-2.81
48003;BMP280;33768;48.578;11.574;2022-12-18T07:22:25;97801.19;;;-3.23
48003;BMP280;33768;48.578;11.574;2022-12-18T07:25:29;97804.34;;;-3.57
48003;BMP280;33768;48.578;11.574;2022-12-18T07:28:34;97805.38;;;-3.77
48003;BMP280;33768;48.578;11.574;2022-12-18T07:31:39;97808.09;;;-3.84
48003;BMP280;33768;48.578;11.574;2022-12-18T07:34:43;97798.59;;;-3.85
48003;BMP280;33768;48.578;11.574;2022-12-18T07:37:47;97816.16;;;-3.88
48003;BMP280;33768;48.578;11.574;2022-12-18T07:40:51;97805.94;;;-3.93
48003;BMP280;33768;48.578;11.574;2022-12-18T07:43:55;97798.00;;;-4.00
48003;BMP280;33768;48.578;11.574;2022-12-18T07:47:00;97793.22;;;-4.15
48003;BMP280;33768;48.578;11.574;2022-12-18T07:50:04;97812.28;;;-4.16
48003;BMP280;33768;48.578;11.574;2022-12-18T07:53:08;97807.78;;;-4.23
48003;BMP280;33768;48.578;11.574;2022-12-18T07:56:13;97806.25;;;-4.24
48003;BMP280;33768;48.578;11.574;2022-12-18T07:59:17;97796.44;;;-4.30
48003;BMP280;33768;48.578;11.574;2022-12-18T08:02:22;97795.69;;;-4.31
48003;BMP280;33768;48.578;11.574;2022-12-18T08:05:27;97796.50;;;-4.37
48003;BMP280;33768;48.578;11.574;2022-12-18T08:08:31;97803.31;;;-4.33
48003;BMP280;33768;48.578;11.574;2022-12-18T08:11:36;97802.88;;;-4.28
48003;BMP280;33768;48.578;11.574;2022-12-18T08:14:40;97821.81;;;-4.19
48003;BMP280;33768;48.578;11.574;2022-12-18T08:17:44;97826.78;;;-4.17
48003;BMP280;33768;48.578;11.574;2022-12-18T08:20:49;97827.81;;;-4.08
48003;BMP280;33768;48.578;11.574;2022-12-18T08:23:55;97827.72;;;-3.98
48003;BMP280;33768;48.578;11.574;2022-12-18T08:26:59;97829.06;;;-3.83
48003;BMP280;33768;48.578;11.574;2022-12-18T08:30:04;97839.69;;;-3.79
48003;BMP280;33768;48.578;11.574;2022-12-18T08:33:09;97838.22;;;-3.84
48003;BMP280;33768;48.578;11.574;2022-12-18T08:36:14;97844.28;;;-3.80
48003;BMP280;33768;48.578;11.574;2022-12-18T08:39:18;97851.13;;;-3.79
48003;BMP280;33768;48.578;11.574;2022-12-18T08:42:25;97840.81;;;-3.77
48003;BMP280;33768;48.578;11.574;2022-12-18T08:45:50;97850.41;;;-3.50
48003;BMP280;33768;48.578;11.574;2022-12-18T08:48:55;97859.19;;;-3.53
48003;BMP280;33768;48.578;11.574;2022-12-18T08:52:00;97863.78;;;-3.53
48003;BMP280;33768;48.578;11.574;2022-12-18T08:55:05;97872.53;;;-3.53
48003;BMP280;33768;48.578;11.574;2022-12-18T08:58:10;97861.78;;;-3.46
48003;BMP280;33768;48.578;11.574;2022-12-18T09:01:14;97863.41;;;-3.55
48003;BMP280;33768;48.578;11.574;2022-12-18T09:04:19;97859.63;;;-3.91
48003;BMP280;33768;48.578;11.574;2022-12-18T09:07:23;97859.41;;;-4.03
48003;BMP280;33768;48.578;11.574;2022-12-18T09:10:27;97865.06;;;-3.98
48003;BMP280;33768;48.578;11.574;2022-12-18T09:13:32;97848.75;;;-4.03
48003;BMP280;33768;48.578;11.574;2022-12-18T09:16:36;97854.09;;;-4.06
48003;BMP280;33768;48.578;11.574;2022-12-18T09:19:40;97853.97;;;-3.96
48003;BMP280;33768;48.578;11.574;2022-12-18T09:22:45;97856.22;;;-3.91
48003;BMP280;33768;48.578;11.574;2022-12-18T09:25:48;97841.38;;;-3.92
48003;BMP280;33768;48.578;11.574;2022-12-18T09:28:53;97850.28;;;-4.05
48003;BMP280;33768;48.578;11.574;2022-12-18T09:31:58;97836.53;;;-4.04
48003;BMP280;33768;48.578;11.574;2022-12-18T09:35:03;97851.59;;;-3.87
48003;BMP280;33768;48.578;11.574;2022-12-18T09:38:09;97848.38;;;-3.72
48003;BMP280;33768;48.578;11.574;2022-12-18T09:41:29;97850.41;;;-3.53
48003;BMP280;33768;48.578;11.574;2022-12-18T09:44:39;97832.47;;;-3.23
48003;BMP280;33768;48.578;11.574;2022-12-18T09:47:46;97829.00;;;-3.20
48003;BMP280;33768;48.578;11.574;2022-12-18T09:50:57;97826.00;;;-3.22
48003;BMP280;33768;48.578;11.574;2022-12-18T09:54:12;97819.09;;;-3.20
48003;BMP280;33768;48.578;11.574;2022-12-18T09:57:22;97819.69;;;-3.09
48003;BMP280;33768;48.578;11.574;2022-12-18T10:00:26;97820.06;;;-3.11
48003;BMP280;33768;48.578;11.574;2022-12-18T10:03:31;97813.06;;;-3.01
48003;BMP280;33768;48.578;11.574;2022-12-18T10:09:59;97804.38;;;-2.82
48003;BMP280;33768;48.578;11.574;2022-12-18T10:19:38;97796.78;;;-2.61
48003;BMP280;33768;48.578;11.574;2022-12-18T10:22:59;97806.81;;;-2.91
48003;BMP280;33768;48.578;11.574;2022-12-18T10:26:09;97805.13;;;-3.05
48003;BMP280;33768;48.578;11.574;2022-12-18T10:29:16;97808.34;;;-3.16
48003;BMP280;33768;48.578;11.574;2022-12-18T10:32:26;97809.59;;;-2.98
48003;BMP280;33768;48.578;11.574;2022-12-18T10:35:31;97807.00;;;-3.05
48003;BMP280;33768;48.578;11.574;2022-12-18T10:38:38;97799.50;;;-3.13
48003;BMP280;33768;48.578;11.574;2022-12-18T10:41:42;97810.34;;;-3.24
48003;BMP280;33768;48.578;11.574;2022-12-18T10:45:01;97809.97;;;-3.22
48003;BMP280;33768;48.578;11.574;2022-12-18T10:48:19;97805.72;;;-3.20
48003;BMP280;33768;48.578;11.574;2022-12-18T10:51:35;97822.81;;;-3.14
48003;BMP280;33768;48.578;11.574;2022-12-18T10:54:49;97820.72;;;-3.03
48003;BMP280;33768;48.578;11.574;2022-12-18T10:57:54;97817.09;;;-2.90
48003;BMP280;33768;48.578;11.574;2022-12-18T11:01:11;97824.31;;;-2.87
48003;BMP280;33768;48.578;11.574;2022-12-18T11:04:26;97819.50;;;-2.73
48003;BMP280;33768;48.578;11.574;2022-12-18T11:07:48;97801.38;;;-2.84
48003;BMP280;33768;48.578;11.574;2022-12-18T11:10:53;97816.50;;;-2.75
48003;BMP280;33768;48.578;11.574;2022-12-18T11:14:05;97808.78;;;-2.73
48003;BMP280;33768;48.578;11.574;2022-12-18T11:17:22;97809.72;;;-2.82
48003;BMP280;33768;48.578;11.574;2022-12-18T11:20:34;97808.63;;;-2.62
48003;BMP280;33768;48.578;11.574;2022-12-18T11:23:47;97814.75;;;-2.39
48003;BMP280;33768;48.578;11.574;2022-12-18T11:26:54;97825.19;;;-2.25
48003;BMP280;33768;48.578;11.574;2022-12-18T11:30:31;97819.72;;;-2.18
48003;BMP280;33768;48.578;11.574;2022-12-18T11:33:37;97812.53;;;-2.02
48003;BMP280;33768;48.578;11.574;2022-12-18T11:36:47;97809.16;;;-1.87
48003;BMP280;33768;48.578;11.574;2022-12-18T11:39:59;97798.81;;;-1.85
48003;BMP280;33768;48.578;11.574;2022-12-18T11:43:23;97797.38;;;-2.09
48003;BMP280;33768;48.578;11.574;2022-12-18T11:46:35;97795.63;;;-2.18
48003;BMP280;33768;48.578;11.574;2022-12-18T11:49:41;97788.81;;;-2.23
48003;BMP280;33768;48.578;11.574;2022-12-18T11:52:45;97792.88;;;-2.34
48003;BMP280;33768;48.578;11.574;2022-12-18T12:09:34;97781.94;;;-2.01
48003;BMP280;33768;48.578;11.574;2022-12-18T12:16:03;97763.09;;;-2.36
48003;BMP280;33768;48.578;11.574;2022-12-18T12:22:59;97762.03;;;-2.84
48003;BMP280;33768;48.578;11.574;2022-12-18T12:26:51;97753.03;;;-2.93
48003;BMP280;33768;48.578;11.574;2022-12-18T12:30:30;97758.25;;;-3.09
48003;BMP280;33768;48.578;11.574;2022-12-18T12:39:57;97754.69;;;-2.57
48003;BMP280;33768;48.578;11.574;2022-12-18T12:43:19;97745.38;;;-2.50
48003;BMP280;33768;48.578;11.574;2022-12-18T12:46:25;97758.88;;;-2.56
48003;BMP280;33768;48.578;11.574;2022-12-18T12:49:32;97756.59;;;-2.58
48003;BMP280;33768;48.578;11.574;2022-12-18T12:52:47;97753.75;;;-2.70
48003;BMP280;33768;48.578;11.574;2022-12-18T12:55:53;97753.56;;;-2.79
48003;BMP280;33768;48.578;11.574;2022-12-18T12:59:13;97757.72;;;-2.78
48003;BMP280;33768;48.578;11.574;2022-12-18T13:02:30;97769.13;;;-2.74
48003;BMP280;33768;48.578;11.574;2022-12-18T13:06:37;97760.28;;;-2.71
48003;BMP280;33768;48.578;11.574;2022-12-18T13:09:12;97759.00;;;-2.63
48003;BMP280;33768;48.578;11.574;2022-12-18T13:12:17;97762.78;;;-2.61
48003;BMP280;33768;48.578;11.574;2022-12-18T13:15:44;97772.41;;;-2.44
48003;BMP280;33768;48.578;11.574;2022-12-18T13:18:54;97773.44;;;-2.38
48003;BMP280;33768;48.578;11.574;2022-12-18T13:22:00;97774.00;;;-2.27
48003;BMP280;33768;48.578;11.574;2022-12-18T13:31:58;97742.97;;;-2.21
48003;BMP280;33768;48.578;11.574;2022-12-18T13:41:30;97738.56;;;-1.93
48003;BMP280;33768;48.578;11.574;2022-12-18T13:44:39;97735.47;;;-2.11
48003;BMP280;33768;48.578;11.574;2022-12-18T13:47:47;97741.72;;;-2.36
48003;BMP280;33768;48.578;11.574;2022-12-18T13:50:56;97731.72;;;-2.55
48003;BMP280;33768;48.578;11.574;2022-12-18T13:54:10;97722.50;;;-2.73
48003;BMP280;33768;48.578;11.574;2022-12-18T13:57:35;97735.59;;;-2.79
48003;BMP280;33768;48.578;11.574;2022-12-18T14:00:43;97744.84;;;-2.41
48003;BMP280;33768;48.578;11.574;2022-12-18T14:03:48;97745.50;;;-1.60
48003;BMP280;33768;48.578;11.574;2022-12-18T14:10:13;97752.41;;;-2.36
48003;BMP280;33768;48.578;11.574;2022-12-18T14:13:24;97738.25;;;-2.56
48003;BMP280;33768;48.578;11.574;2022-12-18T14:16:31;97745.75;;;-2.70
48003;BMP280;33768;48.578;11.574;2022-12-18T14:19:35;97752.47;;;-2.85
48003;BMP280;33768;48.578;11.574;2022-12-18T14:22:43;97766.09;;;-2.99
48003;BMP280;33768;48.578;11.574;2022-12-18T14:25:48;97755.56;;;-3.09
48003;BMP280;33768;48.578;11.574;2022-12-18T14:28:53;97767.69;;;-3.27
48003;BMP280;33768;48.578;11.574;2022-12-18T14:32:16;97760.28;;;-3.42
48003;BMP280;33768;48.578;11.574;2022-12-18T14:35:21;97761.47;;;-3.47
48003;BMP280;33768;48.578;11.574;2022-12-18T14:38:34;97764.25;;;-3.54
48003;BMP280;33768;48.578;11.574;2022-12-18T14:41:39;97759.66;;;-3.53
48003;BMP280;33768;48.578;11.574;2022-12-18T14:44:43;97756.97;;;-3.53
48003;BMP280;33768;48.578;11.574;2022-12-18T14:47:48;97746.00;;;-3.59
48003;BMP280;33768;48.578;11.574;2022-12-18T14:51:16;97743.78;;;-3.64
48003;BMP280;33768;48.578;11.574;2022-12-18T14:54:23;97757.56;;;-3.65
48003;BMP280;33768;48.578;11.574;2022-12-18T14:57:35;97750.69;;;-3.66
48003;BMP280;33768;48.578;11.574;2022-12-18T15:00:42;97745.09;;;-3.49
48003;BMP280;33768;48.578;11.574;2022-12-18T15:03:46;97752.44;;;-1.28
48003;BMP280;33768;48.578;11.574;2022-12-18T15:13:28;97742.66;;;0.00
48003;BMP280;33768;48.578;11.574;2022-12-18T15:16:33;97741.22;;;-1.23
48003;BMP280;33768;48.578;11.574;2022-12-18T15:19:40;97740.22;;;-1.99
48003;BMP280;33768;48.578;11.574;2022-12-18T15:22:47;97745.88;;;-2.54
48003;BMP280;33768;48.578;11.574;2022-12-18T15:26:04;97747.59;;;-2.90
48003;BMP280;33768;48.578;11.574;2022-12-18T15:29:21;97755.66;;;-3.16
48003;BMP280;33768;48.578;11.574;2022-12-18T15:32:26;97750.72;;;-3.40
48003;BMP280;33768;48.578;11.574;2022-12-18T15:35:30;97757.34;;;-3.51
48003;BMP280;33768;48.578;11.574;2022-12-18T15:38:35;97753.41;;;-3.70
48003;BMP280;33768;48.578;11.574;2022-12-18T15:41:39;97743.25;;;-3.78
48003;BMP280;33768;48.578;11.574;2022-12-18T15:44:43;97761.09;;;-3.75
48003;BMP280;33768;48.578;11.574;2022-12-18T15:47:48;97769.19;;;-3.82
48003;BMP280;33768;48.578;11.574;2022-12-18T15:50:54;97765.81;;;-3.86
48003;BMP280;33768;48.578;11.574;2022-12-18T15:54:02;97770.44;;;-3.90
48003;BMP280;33768;48.578;11.574;2022-12-18T15:57:11;97765.94;;;-3.96
48003;BMP280;33768;48.578;11.574;2022-12-18T16:00:27;97761.47;;;-4.03
48003;BMP280;33768;48.578;11.574;2022-12-18T16:03:31;97756.56;;;-4.07
48003;BMP280;33768;48.578;11.574;2022-12-18T16:06:36;97744.84;;;-4.17
48003;BMP280;33768;48.578;11.574;2022-12-18T16:09:41;97751.44;;;-4.25
48003;BMP280;33768;48.578;11.574;2022-12-18T16:12:46;97739.63;;;-4.27
48003;BMP280;33768;48.578;11.574;2022-12-18T16:15:50;97751.13;;;-4.30
48003;BMP280;33768;48.578;11.574;2022-12-18T16:18:54;97738.56;;;-4.33
48003;BMP280;33768;48.578;11.574;2022-12-18T16:21:58;97747.41;;;-4.39
48003;BMP280;33768;48.578;11.574;2022-12-18T16:25:02;97742.94;;;-4.49
48003;BMP280;33768;48.578;11.574;2022-12-18T16:28:08;97744.91;;;-4.57
48003;BMP280;33768;48.578;11.574;2022-12-18T16:31:13;97741.44;;;-4.54
48003;BMP280;33768;48.578;11.574;2022-12-18T16:34:22;97741.09;;;-4.56
48003;BMP280;33768;48.578;11.574;2022-12-18T16:37:27;97735.72;;;-4.52
48003;BMP280;33768;48.578;11.574;2022-12-18T16:40:32;97730.69;;;-4.43
48003;BMP280;33768;48.578;11.574;2022-12-18T16:43:37;97731.47;;;-4.46
48003;BMP280;33768;48.578;11.574;2022-12-18T16:46:41;97735.41;;;-4.58
48003;BMP280;33768;48.578;11.574;2022-12-18T16:49:52;97742.19;;;-4.50
48003;BMP280;33768;48.578;11.574;2022-12-18T16:52:56;97741.44;;;-4.54
48003;BMP280;33768;48.578;11.574;2022-12-18T16:56:00;97738.06;;;-4.58
48003;BMP280;33768;48.578;11.574;2022-12-18T16:59:05;97740.75;;;-4.58
48003;BMP280;33768;48.578;11.574;2022-12-18T17:02:21;97735.44;;;-4.61
48003;BMP280;33768;48.578;11.574;2022-12-18T17:05:26;97737.00;;;-4.64
48003;BMP280;33768;48.578;11.574;2022-12-18T17:08:31;97731.69;;;-4.67
48003;BMP280;33768;48.578;11.574;2022-12-18T17:11:35;97737.06;;;-4.70
48003;BMP280;33768;48.578;11.574;2022-12-18T17:14:40;97731.38;;;-4.72
48003;BMP280;33768;48.578;11.574;2022-12-18T17:17:44;97737.16;;;-4.81
48003;BMP280;33768;48.578;11.574;2022-12-18T17:20:48;97736.06;;;-4.83
48003;BMP280;33768;48.578;11.574;2022-12-18T17:23:53;97729.19;;;-4.81
48003;BMP280;33768;48.578;11.574;2022-12-18T17:26:57;97731.41;;;-4.76
48003;BMP280;33768;48.578;11.574;2022-12-18T17:30:02;97732.97;;;-4.78
48003;BMP280;33768;48.578;11.574;2022-12-18T17:33:07;97742.09;;;-4.79
48003;BMP280;33768;48.578;11.574;2022-12-18T17:36:12;97740.59;;;-4.80
48003;BMP280;33768;48.578;11.574;2022-12-18T17:39:18;97740.22;;;-4.82
48003;BMP280;33768;48.578;11.574;2022-12-18T17:42:23;97736.75;;;-4.79
48003;BMP280;33768;48.578;11.574;2022-12-18T17:45:27;97738.63;;;-4.73
48003;BMP280;33768;48.578;11.574;2022-12-18T17:48:32;97731.69;;;-4.67
48003;BMP280;33768;48.578;11.574;2022-12-18T17:51:36;97728.22;;;-4.64
48003;BMP280;33768;48.578;11.574;2022-12-18T17:54:40;97723.69;;;-4.64
48003;BMP280;33768;48.578;11.574;2022-12-18T17:57:46;97717.19;;;-4.63
48003;BMP280;33768;48.578;11.574;2022-12-18T18:00:51;97717.56;;;-4.61
48003;BMP280;33768;48.578;11.574;2022-12-18T18:03:55;97711.81;;;-4.59
48003;BMP280;33768;48.578;11.574;2022-12-18T18:06:59;97711.81;;;-4.59
48003;BMP280;33768;48.578;11.574;2022-12-18T18:10:05;97721.72;;;-4.60
48003;BMP280;33768;48.578;11.574;2022-12-18T18:13:21;97716.34;;;-4.56
48003;BMP280;33768;48.578;11.574;2022-12-18T18:16:47;97709.91;;;-4.59
48003;BMP280;33768;48.578;11.574;2022-12-18T18:19:51;97704.56;;;-4.59
48003;BMP280;33768;48.578;11.574;2022-12-18T18:22:55;97710.69;;;-4.62
48003;BMP280;33768;48.578;11.574;2022-12-18T18:26:04;97711.91;;;-4.66
48003;BMP280;33768;48.578;11.574;2022-12-18T18:29:13;97717.63;;;-4.68
48003;BMP280;33768;48.578;11.574;2022-12-18T18:32:18;97703.13;;;-4.67
48003;BMP280;33768;48.578;11.574;2022-12-18T18:35:22;97716.03;;;-4.62
48003;BMP280;33768;48.578;11.574;2022-12-18T18:38:27;97702.31;;;-4.60
48003;BMP280;33768;48.578;11.574;2022-12-18T18:41:31;97711.00;;;-4.56
48003;BMP280;33768;48.578;11.574;2022-12-18T18:44:36;97719.78;;;-4.56
48003;BMP280;33768;48.578;11.574;2022-12-18T18:47:40;97713.69;;;-4.56
48003;BMP280;33768;48.578;11.574;2022-12-18T18:50:54;97708.31;;;-4.53
48003;BMP280;33768;48.578;11.574;2022-12-18T18:53:59;97699.44;;;-3.54
48003;BMP280;33768;48.578;11.574;2022-12-18T18:57:03;97698.41;;;-3.90